Metar Cercanos

 

LEPA - Palma De Mallorc, Spain
Distance from station: ONO 38km
Actualización: 23/02/2018 11:30
Parcialmente nuboso
Parcialmente nuboso
 Viento del ENE
Viento: ENE 22 km/h
Temperatura: 11°C
Rocío: 4°C
Humedad: 62%
Barómetro: 1007 hPa
Clouds: Parcialmente nuboso
Visibility: 10 km
Cloud details: Few Clouds 853 m
Parcialmente nuboso 1219 m
2018/02/23 10:30 LEPA 231030Z 07012KT 9999 FEW028 SCT040 11/04 Q1007 NOSIG
LEMH - Mahon/Menorca Is, Spain
Distance from station: ENE 105km
Actualización: 23/02/2018 11:30
Parcialmente nuboso
Parcialmente nuboso
 Viento del NNE
Viento: NNE 35 km/h
Temperatura: 9°C
Sensación frio: 5°C
Rocío: 3°C
Humedad: 66%
Barómetro: 1006 hPa
Clouds: Parcialmente nuboso
Visibility: 10 km
Cloud details: Few Clouds 762 m
Parcialmente nuboso 914 m
2018/02/23 10:30 LEMH 231030Z 02019KT 9999 FEW025 SCT030 09/03 Q1006
 
LEIB - Ibiza/Es Codola, Spain
Distance from station: OSO 165km
Actualización: 23/02/2018 11:30
Parcialmente nuboso
Parcialmente nuboso
 Viento del ENE
Viento: ENE 11 km/h
Temperatura: 10°C
Sensación frio: 8°C
Rocío: 4°C
Humedad: 67%
Barómetro: 1007 hPa
Clouds: Parcialmente nuboso
Visibility: 10 km
Cloud details: Few Clouds 549 m
Parcialmente nuboso 762 m
2018/02/23 10:30 LEIB 231030Z 06006KT 030V100 9999 FEW018 SCT025TCU 10/04 Q1007 NOSIG
LEBL - Barcelona Airpor, Spain
Distance from station: NNO 225km
Actualización: 23/02/2018 11:30
Few Clouds
Few Clouds
 Viento del NO
Viento: NO 17 km/h
Temperatura: 7°C
Sensación frio: 4°C
Rocío: -2°C
Humedad: 53%
Barómetro: 1007 hPa
Clouds: Few Clouds
Visibility: 10 km
Cloud details: Few Clouds 762 m
2018/02/23 10:30 LEBL 231030Z 32009KT 280V350 9999 FEW025 07/M02 Q1007 NOSIG
 
LEVC - Valencia (civ/Mi, Spain
Distance from station: NO 188km
Actualización: 23/02/2018 11:30
Despejado
Despejado
 Viento del varies
Viento: varies 2 km/h
Temperatura: 10°C
Rocío: -8°C
Humedad: 28%
Barómetro: 1008 hPa
Resumen: Despejado
Visibility: greater than 10 km
2018/02/23 10:30 LEVC 231030Z VRB01KT CAVOK 10/M08 Q1008 NOSIG
LEGE - Gerona/Costa Bra, Spain
Distance from station: N 276km
Actualización: 23/02/2018 11:30
Few Clouds
Few Clouds
 Viento del SSO
Viento: SSO 2 km/h
Temperatura: 6°C
Rocío: 0°C
Humedad: 66%
Barómetro: 1007 hPa
Clouds: Few Clouds
Visibility: 10 km
Cloud details: Few Clouds 1219 m
2018/02/23 10:30 LEGE 231030Z 20001KT 9999 FEW040 06/M00 Q1007
 
LEAL - Alicante/El Alte, Spain
Distance from station: OSO 344km
Actualización: 23/02/2018 11:30
Despejado
Despejado
 Viento del varies
Viento: varies 4 km/h
Temperatura: 11°C
Rocío: -1°C
Humedad: 44%
Barómetro: 1007 hPa
Resumen: Despejado
Visibility: greater than 10 km
2018/02/23 10:30 LEAL 231030Z VRB02KT CAVOK 11/M01 Q1007 NOSIG
LEAM - Almeria Airport, Spain
Distance from station: SSO 56km
Actualización: 23/02/2018 11:30
Few Clouds
Few Clouds
 Viento del E
Viento: E 13 km/h
Temperatura: 15°C
Rocío: 0°C
Humedad: 36%
Barómetro: 1006 hPa
Clouds: Few Clouds
Visibility: 10 km
Cloud details: Few Clouds 1524 m
2018/02/23 10:30 LEAM 231030Z 08007KT 050V140 9999 FEW050 15/00 Q1006
 
LEZG - Zaragoza (mil/Ci, Spain
Distance from station: NO 431km
Actualización: 23/02/2018 11:30
Few Clouds
Few Clouds
 Viento del NO
Viento: NO 41 km/h
Temperatura: 6°C
Sensación frio: 1°C
Rocío: -4°C
Humedad: 49%
Barómetro: 1007 hPa
Clouds: Few Clouds
Visibility: 10 km
Cloud details: Few Clouds 1219 m
2018/02/23 10:30 LEZG 231030Z 31022KT 280V340 9999 FEW040 06/M04 Q1007
LEMD - Madrid/Barajas, Spain
Distance from station: ONO 234km
Actualización: 23/02/2018 11:30
Despejado
Despejado
 Viento del ONO
Viento: ONO 6 km/h
Temperatura: 4°C
Rocío: -9°C
Humedad: 39%
Barómetro: 1007 hPa
Resumen: Despejado
Visibility: greater than 10 km
2018/02/23 10:30 LEMD 231030Z 30003KT 260V060 CAVOK 04/M09 Q1007 NOSIG
 
LEGR - Granada Airport, Spain
Distance from station: OSO 62km
Actualización: 23/02/2018 11:30
Despejado
Despejado
 Viento del calm
Viento: Calma
Temperatura: 7°C
Rocío: -3°C
Humedad: 49%
Barómetro: 1006 hPa
Resumen: Despejado
Visibility: greater than 10 km
2018/02/23 10:30 LEGR 231030Z 00000KT CAVOK 07/M03 Q1006
LEMG - Malaga (civ/Mil), Spain
Distance from station: OSO 227km
Actualización: 23/02/2018 11:30
Few Clouds
Few Clouds
 Viento del N
Viento: N 4 km/h
Temperatura: 15°C
Rocío: 2°C
Humedad: 42%
Barómetro: 1006 hPa
Clouds: Few Clouds
Visibility: 10 km
Cloud details: Few Clouds 762 m
2018/02/23 10:30 LEMG 231030Z 35002KT 9999 FEW025 15/02 Q1006 NOSIG
 
LEZL - Sevilla (civ/Mil, Spain
Distance from station: S 318km
Actualización: 23/02/2018 11:30
Despejado
Despejado
 Viento del ENE
Viento: ENE 24 km/h
Temperatura: 12°C
Rocío: -5°C
Humedad: 30%
Barómetro: 1006 hPa
Resumen: Despejado
Visibility: greater than 10 km
2018/02/23 10:30 LEZL 231030Z 07013KT CAVOK 12/M05 Q1006 NOSIG
LEVT - Vitoria, Spain
Distance from station: NO 226km
Actualización: 23/02/2018 11:30
Muy nuboso
Muy nuboso
 Viento del NO
Viento: NO 6 km/h
Temperatura: 3°C
Rocío: -2°C
Humedad: 70%
Barómetro: 1009 hPa
Clouds: Muy nuboso
Visibility: 7 km
Cloud details: Muy nuboso 762 m
2018/02/23 10:30 LEVT 231030Z 32003KT 230V010 7000 BKN025 03/M02 Q1009
 
LEBB - Bilbao/Sondica, Spain
Distance from station: NNO 235km
Actualización: 23/02/2018 11:30
Parcialmente nuboso
Parcialmente nuboso
 Viento del ONO
Viento: ONO 6 km/h
Temperatura: 7°C
Rocío: 3°C
Humedad: 76%
Barómetro: 1011 hPa
Clouds: Parcialmente nuboso
Visibility: 10 km
Cloud details: Parcialmente nuboso 1280 m
2018/02/23 10:30 LEBB 231030Z 30003KT 270V330 9999 SCT042 07/03 Q1011 NOSIG
LESO - San Sebastian/Fu, Spain
Distance from station: N 231km
Actualización: 23/02/2018 11:30
Muy nuboso
Muy nuboso
 Viento del varies
Viento: varies 2 km/h
Temperatura: 4°C
Rocío: 0°C
Humedad: 75%
Barómetro: 1011 hPa
Clouds: Muy nuboso
Visibility: 10 km
Cloud details: Few Clouds 823 m
Muy nuboso 1067 m
2018/02/23 10:30 LESO 231030Z VRB01KT 9999 FEW027 BKN035 04/00 Q1011
 
LEVD - Valladolid(Mil/C, Spain
Distance from station: ONO 239km
Actualización: 23/02/2018 11:30
Despejado
Despejado
 Viento del ENE
Viento: ENE 20 km/h
Temperatura: 1°C
Sensación frio: -4°C
Rocío: -5°C
Humedad: 65%
Barómetro: 1008 hPa
Resumen: Despejado
Visibility: greater than 10 km
2018/02/23 10:30 LEVD 231030Z 07011KT CAVOK 01/M05 Q1008
LESA - Salamanca (civ/M, Spain
Distance from station: ONO 349km
Actualización: 23/02/2018 11:30
Few Clouds
Few Clouds
 Viento del ENE
Viento: ENE 17 km/h
Temperatura: 1°C
Sensación frio: -3°C
Rocío: -7°C
Humedad: 56%
Barómetro: 1008 hPa
Clouds: Few Clouds
Visibility: 10 km
Cloud details: Few Clouds 488 m
2018/02/23 10:30 LESA 231030Z 07009KT 040V110 9999 FEW016 01/M07 Q1008
 
LEXJ - Santander/Paraya, Spain
Distance from station: NNO 247km
Actualización: 23/02/2018 11:30
Few Clouds
Few Clouds
 Viento del varies
Viento: varies 4 km/h
Temperatura: 7°C
Rocío: 3°C
Humedad: 76%
Barómetro: 1012 hPa
Clouds: Few Clouds
Visibility: 9 km
Cloud details: Few Clouds 1097 m
2018/02/23 10:30 LEXJ 231030Z VRB02KT 9000 FEW036 07/03 Q1012
LEAS - Asturias/Aviles, Spain
Distance from station: NO 214km
Actualización: 23/02/2018 11:30
Few Clouds
Few Clouds
 Viento del ESE
Viento: ESE 13 km/h
Temperatura: 7°C
Sensación frio: 5°C
Rocío: -1°C
Humedad: 57%
Barómetro: 1010 hPa
Clouds: Few Clouds
Visibility: 10 km
Cloud details: Few Clouds 1585 m
2018/02/23 10:30 LEAS 231030Z 12007KT 070V160 9999 FEW052 07/M01 Q1010 NOSIG
 
LECO - La Coruna/Alvedr, Spain
Distance from station: ONO 222km
Actualización: 23/02/2018 11:30
Despejado
Despejado
 Viento del SSE
Viento: SSE 11 km/h
Temperatura: 9°C
Sensación frio: 7°C
Rocío: 0°C
Humedad: 54%
Barómetro: 1008 hPa
Resumen: Despejado
Visibility: greater than 10 km
2018/02/23 10:30 LECO 231030Z 15006KT 120V200 CAVOK 09/00 Q1008 NOSIG
LEVX - Vigo/Peinador, Spain
Distance from station: O 214km
Actualización: 23/02/2018 11:30
Despejado
Despejado
 Viento del SSO
Viento: SSO 9 km/h
Temperatura: 7°C
Sensación frio: 6°C
Rocío: 1°C
Humedad: 66%
Barómetro: 1007 hPa
Resumen: Despejado
Visibility: greater than 10 km
2018/02/23 10:30 LEVX 231030Z 20005KT 120V240 CAVOK 07/01 Q1007 NOSIG